Terminal Aerodrome Forecast
Issued by NWS

Home | Current Version | Previous Version | Graphics & Text | Print | Product List | Glossary On
Versions: 1 2 3 4 5 6 7 8 9 10 11 12 13 14 15
077
FTUS43 KGRB 191720
TAFRHI
TAF
KRHI 191720Z 1918/2018 32009G16KT P6SM BKN025 OVC035
     FM192000 34010KT P6SM BKN035
     FM192300 35007KT P6SM SCT040
     FM200300 VRB03KT P6SM SKC
     FM201500 26006KT P6SM SCT200=

USA.gov is the U.S. government's official web portal to all federal, state and local government web resources and services.